sensor_id;sensor_type;location;lat;lon;timestamp;pressure;altitude;pressure_sealevel;temperature;humidity
58239;BME280;44037;55.638;37.356;2023-09-19T00:00:17;99633.97;;;12.28;100.00
58239;BME280;44037;55.638;37.356;2023-09-19T00:02:46;99628.78;;;12.26;100.00
58239;BME280;44037;55.638;37.356;2023-09-19T00:05:18;99627.03;;;12.22;100.00
58239;BME280;44037;55.638;37.356;2023-09-19T00:07:50;99637.44;;;12.22;100.00
58239;BME280;44037;55.638;37.356;2023-09-19T00:10:19;99622.72;;;12.24;100.00
58239;BME280;44037;55.638;37.356;2023-09-19T00:12:47;99633.97;;;12.25;100.00
58239;BME280;44037;55.638;37.356;2023-09-19T00:15:16;99635.69;;;12.23;100.00
58239;BME280;44037;55.638;37.356;2023-09-19T00:17:43;99637.44;;;12.21;100.00
58239;BME280;44037;55.638;37.356;2023-09-19T00:20:11;99633.97;;;12.19;100.00
58239;BME280;44037;55.638;37.356;2023-09-19T00:22:40;99639.19;;;12.22;100.00
58239;BME280;44037;55.638;37.356;2023-09-19T00:25:08;99640.91;;;12.29;100.00
58239;BME280;44037;55.638;37.356;2023-09-19T00:27:37;99635.72;;;12.29;100.00
58239;BME280;44037;55.638;37.356;2023-09-19T00:30:09;99644.38;;;12.33;100.00
58239;BME280;44037;55.638;37.356;2023-09-19T00:32:42;99633.09;;;12.31;100.00
58239;BME280;44037;55.638;37.356;2023-09-19T00:35:10;99637.44;;;12.32;100.00
58239;BME280;44037;55.638;37.356;2023-09-19T00:37:37;99634.84;;;12.32;100.00
58239;BME280;44037;55.638;37.356;2023-09-19T00:40:06;99626.19;;;12.26;100.00
58239;BME280;44037;55.638;37.356;2023-09-19T00:42:36;99630.50;;;12.24;100.00
58239;BME280;44037;55.638;37.356;2023-09-19T00:45:04;99625.31;;;12.26;100.00
58239;BME280;44037;55.638;37.356;2023-09-19T00:47:32;99632.25;;;12.22;100.00
58239;BME280;44037;55.638;37.356;2023-09-19T00:50:01;99632.25;;;12.21;100.00
58239;BME280;44037;55.638;37.356;2023-09-19T00:52:30;99631.38;;;12.22;100.00
58239;BME280;44037;55.638;37.356;2023-09-19T00:54:57;99635.69;;;12.23;100.00
58239;BME280;44037;55.638;37.356;2023-09-19T00:57:25;99631.38;;;12.23;100.00
58239;BME280;44037;55.638;37.356;2023-09-19T00:59:54;99633.09;;;12.26;100.00
58239;BME280;44037;55.638;37.356;2023-09-19T01:02:21;99633.97;;;12.23;100.00
58239;BME280;44037;55.638;37.356;2023-09-19T01:04:48;99624.44;;;12.21;100.00
58239;BME280;44037;55.638;37.356;2023-09-19T01:07:17;99628.78;;;12.19;100.00
58239;BME280;44037;55.638;37.356;2023-09-19T01:09:44;99627.03;;;12.14;100.00
58239;BME280;44037;55.638;37.356;2023-09-19T01:12:16;99627.88;;;12.12;100.00
58239;BME280;44037;55.638;37.356;2023-09-19T01:14:55;99623.53;;;12.12;100.00
58239;BME280;44037;55.638;37.356;2023-09-19T01:17:27;99625.28;;;12.12;100.00
58239;BME280;44037;55.638;37.356;2023-09-19T01:20:19;99626.16;;;12.11;100.00
58239;BME280;44037;55.638;37.356;2023-09-19T01:23:00;99631.34;;;12.11;100.00
58239;BME280;44037;55.638;37.356;2023-09-19T01:25:52;99626.16;;;12.09;100.00
58239;BME280;44037;55.638;37.356;2023-09-19T01:28:32;99625.28;;;12.09;100.00
58239;BME280;44037;55.638;37.356;2023-09-19T01:31:09;99625.25;;;12.04;100.00
58239;BME280;44037;55.638;37.356;2023-09-19T01:33:56;99615.72;;;12.00;100.00
58239;BME280;44037;55.638;37.356;2023-09-19T01:36:26;99618.31;;;11.97;100.00
58239;BME280;44037;55.638;37.356;2023-09-19T01:38:55;99613.94;;;11.91;100.00
58239;BME280;44037;55.638;37.356;2023-09-19T01:41:33;99597.47;;;11.84;100.00
58239;BME280;44037;55.638;37.356;2023-09-19T01:44:06;99606.13;;;11.83;100.00
58239;BME280;44037;55.638;37.356;2023-09-19T01:46:39;99596.59;;;11.75;100.00
58239;BME280;44037;55.638;37.356;2023-09-19T01:49:16;99605.22;;;11.74;100.00
58239;BME280;44037;55.638;37.356;2023-09-19T01:51:53;99599.16;;;11.72;100.00
58239;BME280;44037;55.638;37.356;2023-09-19T01:54:26;99610.41;;;11.64;100.00
58239;BME280;44037;55.638;37.356;2023-09-19T01:57:01;99593.91;;;11.61;100.00
58239;BME280;44037;55.638;37.356;2023-09-19T01:59:35;99587.84;;;11.57;100.00
58239;BME280;44037;55.638;37.356;2023-09-19T02:02:08;99599.06;;;11.51;100.00
58239;BME280;44037;55.638;37.356;2023-09-19T02:04:36;99594.75;;;11.49;100.00
58239;BME280;44037;55.638;37.356;2023-09-19T02:07:03;99595.59;;;11.45;100.00
58239;BME280;44037;55.638;37.356;2023-09-19T02:09:33;99590.38;;;11.39;100.00
58239;BME280;44037;55.638;37.356;2023-09-19T02:12:01;99582.56;;;11.37;100.00
58239;BME280;44037;55.638;37.356;2023-09-19T02:14:30;99581.69;;;11.35;100.00
58239;BME280;44037;55.638;37.356;2023-09-19T02:16:57;99583.41;;;11.31;100.00
58239;BME280;44037;55.638;37.356;2023-09-19T02:19:26;99586.88;;;11.33;100.00
58239;BME280;44037;55.638;37.356;2023-09-19T02:21:55;99591.22;;;11.36;100.00
58239;BME280;44037;55.638;37.356;2023-09-19T02:24:23;99591.22;;;11.36;100.00
58239;BME280;44037;55.638;37.356;2023-09-19T02:26:52;99584.34;;;11.40;100.00
58239;BME280;44037;55.638;37.356;2023-09-19T02:29:20;99589.53;;;11.44;100.00
58239;BME280;44037;55.638;37.356;2023-09-19T02:31:47;99574.84;;;11.46;100.00
58239;BME280;44037;55.638;37.356;2023-09-19T02:34:14;99579.16;;;11.47;100.00
58239;BME280;44037;55.638;37.356;2023-09-19T02:36:43;99589.53;;;11.47;100.00
58239;BME280;44037;55.638;37.356;2023-09-19T02:39:11;99594.72;;;11.47;100.00
58239;BME280;44037;55.638;37.356;2023-09-19T02:41:38;99587.81;;;11.46;100.00
58239;BME280;44037;55.638;37.356;2023-09-19T02:44:07;99582.63;;;11.43;100.00
58239;BME280;44037;55.638;37.356;2023-09-19T02:46:34;99571.38;;;11.46;100.00
58239;BME280;44037;55.638;37.356;2023-09-19T02:49:03;99566.19;;;11.50;100.00
58239;BME280;44037;55.638;37.356;2023-09-19T02:51:30;99574.00;;;11.50;100.00
58239;BME280;44037;55.638;37.356;2023-09-19T02:53:59;99579.22;;;11.52;100.00
58239;BME280;44037;55.638;37.356;2023-09-19T02:56:28;99577.47;;;11.54;100.00
58239;BME280;44037;55.638;37.356;2023-09-19T02:58:56;99580.06;;;11.56;100.00
58239;BME280;44037;55.638;37.356;2023-09-19T03:01:23;99580.94;;;11.55;100.00
58239;BME280;44037;55.638;37.356;2023-09-19T03:03:50;99574.88;;;11.52;100.00
58239;BME280;44037;55.638;37.356;2023-09-19T03:06:17;99587.84;;;11.52;100.00
58239;BME280;44037;55.638;37.356;2023-09-19T03:08:45;99582.66;;;11.52;100.00
58239;BME280;44037;55.638;37.356;2023-09-19T03:11:16;99580.91;;;11.51;100.00
58239;BME280;44037;55.638;37.356;2023-09-19T03:13:51;99577.47;;;11.52;100.00
58239;BME280;44037;55.638;37.356;2023-09-19T03:16:18;99582.66;;;11.54;100.00
58239;BME280;44037;55.638;37.356;2023-09-19T03:18:47;99575.72;;;11.51;100.00
58239;BME280;44037;55.638;37.356;2023-09-19T03:21:15;99577.47;;;11.54;100.00
58239;BME280;44037;55.638;37.356;2023-09-19T03:23:42;99580.06;;;11.54;100.00
58239;BME280;44037;55.638;37.356;2023-09-19T03:26:11;99580.06;;;11.52;100.00
58239;BME280;44037;55.638;37.356;2023-09-19T03:28:41;99577.47;;;11.56;100.00
58239;BME280;44037;55.638;37.356;2023-09-19T03:31:09;99572.28;;;11.56;100.00
58239;BME280;44037;55.638;37.356;2023-09-19T03:33:36;99567.09;;;11.57;100.00
58239;BME280;44037;55.638;37.356;2023-09-19T03:36:04;99566.22;;;11.60;100.00
58239;BME280;44037;55.638;37.356;2023-09-19T03:38:31;99564.50;;;11.62;100.00
58239;BME280;44037;55.638;37.356;2023-09-19T03:40:59;99571.47;;;11.66;100.00
58239;BME280;44037;55.638;37.356;2023-09-19T03:43:27;99566.28;;;11.69;100.00
58239;BME280;44037;55.638;37.356;2023-09-19T03:45:55;99572.34;;;11.73;100.00
58239;BME280;44037;55.638;37.356;2023-09-19T03:48:23;99573.22;;;11.76;100.00
58239;BME280;44037;55.638;37.356;2023-09-19T03:50:50;99571.50;;;11.78;100.00
58239;BME280;44037;55.638;37.356;2023-09-19T03:53:18;99574.09;;;11.77;100.00
58239;BME280;44037;55.638;37.356;2023-09-19T03:55:45;99572.34;;;11.79;100.00
58239;BME280;44037;55.638;37.356;2023-09-19T03:58:12;99566.31;;;11.81;100.00
58239;BME280;44037;55.638;37.356;2023-09-19T04:00:40;99571.50;;;11.84;100.00
58239;BME280;44037;55.638;37.356;2023-09-19T04:03:08;99569.78;;;11.85;100.00
58239;BME280;44037;55.638;37.356;2023-09-19T04:05:44;99574.97;;;11.85;100.00
58239;BME280;44037;55.638;37.356;2023-09-19T04:08:11;99573.25;;;11.87;100.00
58239;BME280;44037;55.638;37.356;2023-09-19T04:10:38;99566.34;;;11.91;100.00
58239;BME280;44037;55.638;37.356;2023-09-19T04:13:05;99558.56;;;11.95;100.00
58239;BME280;44037;55.638;37.356;2023-09-19T04:15:33;99554.25;;;11.99;100.00
58239;BME280;44037;55.638;37.356;2023-09-19T04:18:00;99556.88;;;12.05;100.00
58239;BME280;44037;55.638;37.356;2023-09-19T04:20:30;99555.16;;;12.10;100.00
58239;BME280;44037;55.638;37.356;2023-09-19T04:22:57;99549.13;;;12.18;100.00
58239;BME280;44037;55.638;37.356;2023-09-19T04:25:25;99552.56;;;12.26;100.00
58239;BME280;44037;55.638;37.356;2023-09-19T04:27:53;99556.03;;;12.28;100.00
58239;BME280;44037;55.638;37.356;2023-09-19T04:30:20;99549.97;;;12.31;100.00
58239;BME280;44037;55.638;37.356;2023-09-19T04:32:47;99548.28;;;12.34;100.00
58239;BME280;44037;55.638;37.356;2023-09-19T04:35:16;99547.38;;;12.34;100.00
58239;BME280;44037;55.638;37.356;2023-09-19T04:37:44;99545.66;;;12.36;100.00
58239;BME280;44037;55.638;37.356;2023-09-19T04:40:13;99544.81;;;12.44;100.00
58239;BME280;44037;55.638;37.356;2023-09-19T04:42:43;99538.72;;;12.47;100.00
58239;BME280;44037;55.638;37.356;2023-09-19T04:45:10;99545.66;;;12.53;100.00
58239;BME280;44037;55.638;37.356;2023-09-19T04:47:38;99540.47;;;12.60;100.00
58239;BME280;44037;55.638;37.356;2023-09-19T04:50:08;99544.78;;;12.62;100.00
58239;BME280;44037;55.638;37.356;2023-09-19T04:52:39;99544.78;;;12.69;100.00
58239;BME280;44037;55.638;37.356;2023-09-19T04:55:10;99538.69;;;12.73;100.00
58239;BME280;44037;55.638;37.356;2023-09-19T04:57:43;99543.06;;;12.73;100.00
58239;BME280;44037;55.638;37.356;2023-09-19T05:00:12;99536.97;;;12.82;100.00
58239;BME280;44037;55.638;37.356;2023-09-19T05:02:40;99535.22;;;12.88;100.00
58239;BME280;44037;55.638;37.356;2023-09-19T05:05:09;99532.63;;;12.90;100.00
58239;BME280;44037;55.638;37.356;2023-09-19T05:07:37;99528.28;;;12.94;100.00
58239;BME280;44037;55.638;37.356;2023-09-19T05:10:06;99517.91;;;12.90;100.00
58239;BME280;44037;55.638;37.356;2023-09-19T05:12:35;99525.69;;;12.86;100.00
58239;BME280;44037;55.638;37.356;2023-09-19T05:15:02;99522.22;;;12.87;100.00
58239;BME280;44037;55.638;37.356;2023-09-19T05:17:30;99516.19;;;12.85;100.00
58239;BME280;44037;55.638;37.356;2023-09-19T05:19:58;99511.81;;;12.87;100.00
58239;BME280;44037;55.638;37.356;2023-09-19T05:22:26;99515.28;;;12.95;100.00
58239;BME280;44037;55.638;37.356;2023-09-19T05:24:54;99516.13;;;13.03;100.00
58239;BME280;44037;55.638;37.356;2023-09-19T05:27:21;99508.28;;;13.08;100.00
58239;BME280;44037;55.638;37.356;2023-09-19T05:29:50;99511.72;;;13.19;100.00
58239;BME280;44037;55.638;37.356;2023-09-19T05:32:18;99516.00;;;13.30;100.00
58239;BME280;44037;55.638;37.356;2023-09-19T05:34:46;99514.28;;;13.46;100.00
58239;BME280;44037;55.638;37.356;2023-09-19T05:37:13;99515.06;;;13.59;100.00
58239;BME280;44037;55.638;37.356;2023-09-19T05:39:42;99516.78;;;13.61;100.00
58239;BME280;44037;55.638;37.356;2023-09-19T05:42:09;99512.41;;;13.70;100.00
58239;BME280;44037;55.638;37.356;2023-09-19T05:44:36;99513.19;;;13.82;100.00
58239;BME280;44037;55.638;37.356;2023-09-19T05:47:05;99514.88;;;13.88;100.00
58239;BME280;44037;55.638;37.356;2023-09-19T05:49:34;99514.84;;;13.97;100.00
58239;BME280;44037;55.638;37.356;2023-09-19T05:52:04;99517.34;;;14.08;100.00
58239;BME280;44037;55.638;37.356;2023-09-19T05:54:32;99516.50;;;14.06;100.00
58239;BME280;44037;55.638;37.356;2023-09-19T05:57:00;99516.41;;;14.20;100.00
58239;BME280;44037;55.638;37.356;2023-09-19T05:59:28;99505.03;;;14.31;100.00
58239;BME280;44037;55.638;37.356;2023-09-19T06:01:55;99506.75;;;14.32;100.00
58239;BME280;44037;55.638;37.356;2023-09-19T06:04:24;99511.03;;;14.42;100.00
58239;BME280;44037;55.638;37.356;2023-09-19T06:06:51;99496.22;;;14.44;100.00
58239;BME280;44037;55.638;37.356;2023-09-19T06:09:18;99484.16;;;14.34;100.00
58239;BME280;44037;55.638;37.356;2023-09-19T06:11:45;99497.19;;;14.35;100.00
58239;BME280;44037;55.638;37.356;2023-09-19T06:14:12;99497.19;;;14.32;100.00
58239;BME280;44037;55.638;37.356;2023-09-19T06:16:39;99488.63;;;14.22;100.00
58239;BME280;44037;55.638;37.356;2023-09-19T06:19:07;99484.25;;;14.20;100.00
58239;BME280;44037;55.638;37.356;2023-09-19T06:21:36;99491.13;;;14.35;100.00
58239;BME280;44037;55.638;37.356;2023-09-19T06:24:05;99508.31;;;14.54;100.00
58239;BME280;44037;55.638;37.356;2023-09-19T06:26:32;99509.81;;;14.80;100.00
58239;BME280;44037;55.638;37.356;2023-09-19T06:28:59;99510.38;;;15.09;100.00
58239;BME280;44037;55.638;37.356;2023-09-19T06:31:26;99504.97;;;15.27;100.00
58239;BME280;44037;55.638;37.356;2023-09-19T06:33:53;99502.06;;;15.49;100.00
58239;BME280;44037;55.638;37.356;2023-09-19T06:36:20;99505.22;;;15.73;100.00
58239;BME280;44037;55.638;37.356;2023-09-19T06:38:49;99506.88;;;15.78;100.00
58239;BME280;44037;55.638;37.356;2023-09-19T06:41:17;99515.44;;;15.90;100.00
58239;BME280;44037;55.638;37.356;2023-09-19T06:43:45;99521.31;;;16.07;100.00
58239;BME280;44037;55.638;37.356;2023-09-19T06:46:12;99518.66;;;16.10;100.00
58239;BME280;44037;55.638;37.356;2023-09-19T06:48:39;99521.09;;;16.20;100.00
58239;BME280;44037;55.638;37.356;2023-09-19T06:51:07;99512.94;;;16.40;100.00
58239;BME280;44037;55.638;37.356;2023-09-19T06:53:35;99503.22;;;16.48;100.00
58239;BME280;44037;55.638;37.356;2023-09-19T06:56:04;99502.50;;;16.40;100.00
58239;BME280;44037;55.638;37.356;2023-09-19T06:58:32;99498.03;;;16.45;100.00
58239;BME280;44037;55.638;37.356;2023-09-19T07:00:58;99502.22;;;16.55;100.00
58239;BME280;44037;55.638;37.356;2023-09-19T07:03:25;99501.38;;;16.53;100.00
58239;BME280;44037;55.638;37.356;2023-09-19T07:05:54;99496.03;;;16.61;100.00
58239;BME280;44037;55.638;37.356;2023-09-19T07:08:21;99487.22;;;16.65;100.00
58239;BME280;44037;55.638;37.356;2023-09-19T07:10:48;99495.22;;;16.56;100.00
58239;BME280;44037;55.638;37.356;2023-09-19T07:13:21;99489.28;;;16.48;100.00
58239;BME280;44037;55.638;37.356;2023-09-19T07:15:48;99489.13;;;16.57;100.00
58239;BME280;44037;55.638;37.356;2023-09-19T07:18:16;99489.91;;;16.62;100.00
58239;BME280;44037;55.638;37.356;2023-09-19T07:20:43;99492.53;;;16.62;100.00
58239;BME280;44037;55.638;37.356;2023-09-19T07:23:14;99488.84;;;16.72;100.00
58239;BME280;44037;55.638;37.356;2023-09-19T07:25:42;99486.72;;;16.95;100.00
58239;BME280;44037;55.638;37.356;2023-09-19T07:28:09;99492.53;;;17.09;100.00
58239;BME280;44037;55.638;37.356;2023-09-19T07:30:37;99493.00;;;17.28;100.00
58239;BME280;44037;55.638;37.356;2023-09-19T07:33:06;99484.72;;;17.50;100.00
58239;BME280;44037;55.638;37.356;2023-09-19T07:35:33;99493.31;;;17.57;100.00
58239;BME280;44037;55.638;37.356;2023-09-19T07:38:00;99492.47;;;17.55;100.00
58239;BME280;44037;55.638;37.356;2023-09-19T07:40:28;99491.31;;;17.66;100.00
58239;BME280;44037;55.638;37.356;2023-09-19T07:42:55;99484.66;;;17.91;100.00
58239;BME280;44037;55.638;37.356;2023-09-19T07:45:27;99475.84;;;17.93;100.00
58239;BME280;44037;55.638;37.356;2023-09-19T07:47:57;99465.81;;;18.13;100.00
58239;BME280;44037;55.638;37.356;2023-09-19T07:50:24;99461.63;;;18.40;100.00
58239;BME280;44037;55.638;37.356;2023-09-19T07:52:52;99462.25;;;18.51;100.00
58239;BME280;44037;55.638;37.356;2023-09-19T07:55:22;99461.50;;;18.46;100.00
58239;BME280;44037;55.638;37.356;2023-09-19T07:57:51;99462.94;;;18.58;100.00
58239;BME280;44037;55.638;37.356;2023-09-19T08:00:19;99450.34;;;18.71;100.00
58239;BME280;44037;55.638;37.356;2023-09-19T08:02:46;99457.03;;;18.83;100.00
58239;BME280;44037;55.638;37.356;2023-09-19T08:05:15;99453.94;;;19.00;100.00
58239;BME280;44037;55.638;37.356;2023-09-19T08:07:44;99454.84;;;19.29;100.00
58239;BME280;44037;55.638;37.356;2023-09-19T08:10:14;99460.00;;;19.62;100.00
58239;BME280;44037;55.638;37.356;2023-09-19T08:12:42;99453.09;;;19.88;100.00
58239;BME280;44037;55.638;37.356;2023-09-19T08:15:13;99454.00;;;20.14;100.00
58239;BME280;44037;55.638;37.356;2023-09-19T08:17:40;99441.63;;;20.42;100.00
58239;BME280;44037;55.638;37.356;2023-09-19T08:20:08;99447.91;;;20.64;100.00
58239;BME280;44037;55.638;37.356;2023-09-19T08:22:47;99441.47;;;20.72;100.00
58239;BME280;44037;55.638;37.356;2023-09-19T08:25:15;99445.50;;;20.83;100.00
58239;BME280;44037;55.638;37.356;2023-09-19T08:27:46;99434.69;;;20.91;100.00
58239;BME280;44037;55.638;37.356;2023-09-19T08:30:15;99429.31;;;20.94;100.00
58239;BME280;44037;55.638;37.356;2023-09-19T08:32:43;99434.81;;;20.87;100.00
58239;BME280;44037;55.638;37.356;2023-09-19T08:35:12;99423.81;;;20.76;100.00
58239;BME280;44037;55.638;37.356;2023-09-19T08:37:40;99426.81;;;20.65;100.00
58239;BME280;44037;55.638;37.356;2023-09-19T08:40:09;99429.72;;;20.58;100.00
58239;BME280;44037;55.638;37.356;2023-09-19T08:42:49;99434.25;;;20.54;100.00
58239;BME280;44037;55.638;37.356;2023-09-19T08:45:17;99430.03;;;20.48;100.00
58239;BME280;44037;55.638;37.356;2023-09-19T08:47:46;99426.91;;;20.37;100.00
58239;BME280;44037;55.638;37.356;2023-09-19T08:50:19;99421.81;;;20.32;100.00
58239;BME280;44037;55.638;37.356;2023-09-19T08:52:51;99417.59;;;20.28;100.00
58239;BME280;44037;55.638;37.356;2023-09-19T08:55:23;99418.59;;;20.24;100.00
58239;BME280;44037;55.638;37.356;2023-09-19T08:57:59;99413.75;;;20.12;100.00
58239;BME280;44037;55.638;37.356;2023-09-19T09:00:27;99414.84;;;20.04;100.00
58239;BME280;44037;55.638;37.356;2023-09-19T09:02:55;99407.78;;;20.06;100.00
58239;BME280;44037;55.638;37.356;2023-09-19T09:05:23;99415.25;;;20.19;100.00
58239;BME280;44037;55.638;37.356;2023-09-19T09:07:52;99405.13;;;20.33;100.00
58239;BME280;44037;55.638;37.356;2023-09-19T09:10:21;99410.56;;;20.54;100.00
58239;BME280;44037;55.638;37.356;2023-09-19T09:12:51;99413.28;;;20.76;100.00
58239;BME280;44037;55.638;37.356;2023-09-19T09:15:19;99415.88;;;21.01;100.00
58239;BME280;44037;55.638;37.356;2023-09-19T09:17:47;99408.97;;;21.21;100.00
58239;BME280;44037;55.638;37.356;2023-09-19T09:20:16;99414.28;;;21.43;100.00
58239;BME280;44037;55.638;37.356;2023-09-19T09:22:51;99413.19;;;21.49;97.03
58239;BME280;44037;55.638;37.356;2023-09-19T09:25:19;99406.66;;;21.36;96.61
58239;BME280;44037;55.638;37.356;2023-09-19T09:28:00;99399.78;;;21.31;96.96
58239;BME280;44037;55.638;37.356;2023-09-19T09:30:37;99399.03;;;21.29;95.74
58239;BME280;44037;55.638;37.356;2023-09-19T09:33:11;99395.16;;;21.38;95.35
58239;BME280;44037;55.638;37.356;2023-09-19T09:35:47;99397.19;;;21.54;96.38
58239;BME280;44037;55.638;37.356;2023-09-19T09:38:18;99392.16;;;21.70;94.68
58239;BME280;44037;55.638;37.356;2023-09-19T09:40:49;99389.91;;;21.83;94.08
58239;BME280;44037;55.638;37.356;2023-09-19T09:43:29;99379.97;;;21.89;92.92
58239;BME280;44037;55.638;37.356;2023-09-19T09:46:12;99388.28;;;22.01;92.50
58239;BME280;44037;55.638;37.356;2023-09-19T09:48:58;99384.25;;;22.13;91.39
58239;BME280;44037;55.638;37.356;2023-09-19T09:51:44;99382.34;;;22.16;90.89
58239;BME280;44037;55.638;37.356;2023-09-19T09:54:16;99383.47;;;22.11;91.17
58239;BME280;44037;55.638;37.356;2023-09-19T09:56:55;99378.88;;;21.93;91.73
58239;BME280;44037;55.638;37.356;2023-09-19T09:59:49;99386.97;;;21.68;92.89
58239;BME280;44037;55.638;37.356;2023-09-19T10:02:17;99378.84;;;21.51;92.93
58239;BME280;44037;55.638;37.356;2023-09-19T10:04:50;99382.03;;;21.37;94.24
58239;BME280;44037;55.638;37.356;2023-09-19T10:07:39;99364.88;;;21.26;95.14
58239;BME280;44037;55.638;37.356;2023-09-19T10:10:12;99378.34;;;21.18;95.06
58239;BME280;44037;55.638;37.356;2023-09-19T10:12:44;99383.81;;;21.14;95.92
58239;BME280;44037;55.638;37.356;2023-09-19T10:15:16;99372.34;;;21.15;96.50
58239;BME280;44037;55.638;37.356;2023-09-19T10:17:46;99366.91;;;21.20;97.48
58239;BME280;44037;55.638;37.356;2023-09-19T10:20:15;99361.56;;;21.21;96.69
58239;BME280;44037;55.638;37.356;2023-09-19T10:23:06;99357.28;;;21.18;97.04
58239;BME280;44037;55.638;37.356;2023-09-19T10:25:38;99361.81;;;21.15;96.87
58239;BME280;44037;55.638;37.356;2023-09-19T10:28:06;99356.78;;;21.09;96.92
58239;BME280;44037;55.638;37.356;2023-09-19T10:30:40;99358.75;;;21.04;97.23
58239;BME280;44037;55.638;37.356;2023-09-19T10:33:11;99351.94;;;20.98;97.88
58239;BME280;44037;55.638;37.356;2023-09-19T10:35:40;99346.69;;;20.98;98.42
58239;BME280;44037;55.638;37.356;2023-09-19T10:38:10;99346.69;;;20.98;98.86
58239;BME280;44037;55.638;37.356;2023-09-19T10:40:38;99335.19;;;20.99;99.20
58239;BME280;44037;55.638;37.356;2023-09-19T10:43:12;99338.59;;;21.02;99.51
58239;BME280;44037;55.638;37.356;2023-09-19T10:45:44;99335.97;;;21.02;99.31
58239;BME280;44037;55.638;37.356;2023-09-19T10:48:12;99332.41;;;21.04;99.81
58239;BME280;44037;55.638;37.356;2023-09-19T10:50:45;99343.69;;;21.07;99.93
58239;BME280;44037;55.638;37.356;2023-09-19T10:53:14;99328.59;;;21.11;100.00
58239;BME280;44037;55.638;37.356;2023-09-19T10:55:50;99328.38;;;21.17;100.00
58239;BME280;44037;55.638;37.356;2023-09-19T10:58:27;99324.56;;;21.24;100.00
58239;BME280;44037;55.638;37.356;2023-09-19T11:00:58;99327.09;;;21.27;100.00
58239;BME280;44037;55.638;37.356;2023-09-19T11:03:31;99323.47;;;21.30;100.00
58239;BME280;44037;55.638;37.356;2023-09-19T11:06:03;99323.81;;;21.43;100.00
58239;BME280;44037;55.638;37.356;2023-09-19T11:08:30;99317.31;;;21.52;100.00
58239;BME280;44037;55.638;37.356;2023-09-19T11:10:59;99321.88;;;21.70;98.93
58239;BME280;44037;55.638;37.356;2023-09-19T11:13:30;99317.84;;;21.61;98.80
58239;BME280;44037;55.638;37.356;2023-09-19T11:16:05;99319.63;;;21.61;99.08
58239;BME280;44037;55.638;37.356;2023-09-19T11:18:53;99314.75;;;21.72;98.69
58239;BME280;44037;55.638;37.356;2023-09-19T11:21:52;99314.16;;;22.07;98.26
58239;BME280;44037;55.638;37.356;2023-09-19T11:24:33;99307.59;;;22.36;97.36
58239;BME280;44037;55.638;37.356;2023-09-19T11:27:11;99312.41;;;22.47;96.59
58239;BME280;44037;55.638;37.356;2023-09-19T11:29:40;99308.19;;;22.43;93.88
58239;BME280;44037;55.638;37.356;2023-09-19T11:32:08;99307.16;;;22.27;93.81
58239;BME280;44037;55.638;37.356;2023-09-19T11:34:48;99306.81;;;22.14;94.62
58239;BME280;44037;55.638;37.356;2023-09-19T11:40:37;99296.22;;;22.15;96.07
58239;BME280;44037;55.638;37.356;2023-09-19T11:43:32;99296.16;;;21.96;95.58
58239;BME280;44037;55.638;37.356;2023-09-19T11:46:05;99301.38;;;21.77;96.55
58239;BME280;44037;55.638;37.356;2023-09-19T11:48:35;99297.94;;;21.75;97.46
58239;BME280;44037;55.638;37.356;2023-09-19T11:51:17;99289.72;;;21.83;97.43
58239;BME280;44037;55.638;37.356;2023-09-19T11:53:54;99289.44;;;21.89;97.32
58239;BME280;44037;55.638;37.356;2023-09-19T11:56:22;99289.19;;;21.95;97.92
58239;BME280;44037;55.638;37.356;2023-09-19T11:58:51;99286.22;;;22.03;97.52
58239;BME280;44037;55.638;37.356;2023-09-19T12:01:25;99274.53;;;22.08;97.02
58239;BME280;44037;55.638;37.356;2023-09-19T12:03:57;99280.66;;;22.09;94.08
58239;BME280;44037;55.638;37.356;2023-09-19T12:06:26;99277.97;;;22.11;94.39
58239;BME280;44037;55.638;37.356;2023-09-19T12:08:53;99275.63;;;22.23;95.20
58239;BME280;44037;55.638;37.356;2023-09-19T12:11:22;99268.22;;;22.32;94.75
58239;BME280;44037;55.638;37.356;2023-09-19T12:13:50;99266.31;;;22.35;93.64
58239;BME280;44037;55.638;37.356;2023-09-19T12:16:19;99273.47;;;22.32;89.74
58239;BME280;44037;55.638;37.356;2023-09-19T12:18:49;99265.19;;;22.41;90.28
58239;BME280;44037;55.638;37.356;2023-09-19T12:21:28;99257.66;;;22.52;90.40
58239;BME280;44037;55.638;37.356;2023-09-19T12:24:04;99257.34;;;22.59;90.11
58239;BME280;44037;55.638;37.356;2023-09-19T12:26:39;99259.94;;;22.60;89.78
58239;BME280;44037;55.638;37.356;2023-09-19T12:29:15;99258.34;;;22.56;87.93
58239;BME280;44037;55.638;37.356;2023-09-19T12:31:51;99250.66;;;22.51;88.33
58239;BME280;44037;55.638;37.356;2023-09-19T12:34:21;99253.16;;;22.54;89.04
58239;BME280;44037;55.638;37.356;2023-09-19T12:37:06;99246.88;;;22.57;89.43
58239;BME280;44037;55.638;37.356;2023-09-19T12:39:38;99249.38;;;22.60;89.20
58239;BME280;44037;55.638;37.356;2023-09-19T12:42:08;99244.31;;;22.55;87.18
58239;BME280;44037;55.638;37.356;2023-09-19T12:44:37;99244.94;;;22.42;88.12
58239;BME280;44037;55.638;37.356;2023-09-19T12:47:11;99238.41;;;22.30;89.61
58239;BME280;44037;55.638;37.356;2023-09-19T12:50:06;99245.97;;;22.37;90.16
58239;BME280;44037;55.638;37.356;2023-09-19T12:52:41;99245.63;;;22.45;90.06
58239;BME280;44037;55.638;37.356;2023-09-19T12:55:19;99243.09;;;22.44;89.01
58239;BME280;44037;55.638;37.356;2023-09-19T12:58:08;99241.47;;;22.39;89.61
58239;BME280;44037;55.638;37.356;2023-09-19T13:00:37;99237.88;;;22.42;89.46
58239;BME280;44037;55.638;37.356;2023-09-19T13:03:26;99242.06;;;22.46;89.82